sensor_id;sensor_type;location;lat;lon;timestamp;temperature;humidity
67769;DHT22;54569;52.018;5.584;2023-04-25T00:00:32;7.40;81.80
67769;DHT22;54569;52.018;5.584;2023-04-25T00:02:58;7.40;81.80
67769;DHT22;54569;52.018;5.584;2023-04-25T00:05:25;7.30;81.90
67769;DHT22;54569;52.018;5.584;2023-04-25T00:07:51;7.30;82.00
67769;DHT22;54569;52.018;5.584;2023-04-25T00:10:17;7.30;82.20
67769;DHT22;54569;52.018;5.584;2023-04-25T00:12:43;7.30;82.20
67769;DHT22;54569;52.018;5.584;2023-04-25T00:15:09;7.20;82.10
67769;DHT22;54569;52.018;5.584;2023-04-25T00:17:35;7.20;82.10
67769;DHT22;54569;52.018;5.584;2023-04-25T00:20:01;7.20;82.30
67769;DHT22;54569;52.018;5.584;2023-04-25T00:22:30;7.20;82.30
67769;DHT22;54569;52.018;5.584;2023-04-25T00:24:56;7.20;82.40
67769;DHT22;54569;52.018;5.584;2023-04-25T00:27:26;7.10;82.40
67769;DHT22;54569;52.018;5.584;2023-04-25T00:29:51;7.10;82.40
67769;DHT22;54569;52.018;5.584;2023-04-25T00:32:17;7.10;82.50
67769;DHT22;54569;52.018;5.584;2023-04-25T00:34:43;7.10;82.60
67769;DHT22;54569;52.018;5.584;2023-04-25T00:37:08;7.00;82.50
67769;DHT22;54569;52.018;5.584;2023-04-25T00:39:34;7.00;82.60
67769;DHT22;54569;52.018;5.584;2023-04-25T00:42:00;7.00;82.60
67769;DHT22;54569;52.018;5.584;2023-04-25T00:44:27;7.00;82.50
67769;DHT22;54569;52.018;5.584;2023-04-25T00:46:55;7.00;82.50
67769;DHT22;54569;52.018;5.584;2023-04-25T00:49:21;7.00;82.50
67769;DHT22;54569;52.018;5.584;2023-04-25T00:51:46;7.00;82.40
67769;DHT22;54569;52.018;5.584;2023-04-25T00:54:13;7.00;82.40
67769;DHT22;54569;52.018;5.584;2023-04-25T00:56:40;6.90;82.40
67769;DHT22;54569;52.018;5.584;2023-04-25T00:59:06;6.90;82.50
67769;DHT22;54569;52.018;5.584;2023-04-25T01:01:32;6.90;82.50
67769;DHT22;54569;52.018;5.584;2023-04-25T01:03:58;7.00;82.30
67769;DHT22;54569;52.018;5.584;2023-04-25T01:06:24;7.00;82.20
67769;DHT22;54569;52.018;5.584;2023-04-25T01:08:51;7.00;82.00
67769;DHT22;54569;52.018;5.584;2023-04-25T01:11:17;7.10;81.90
67769;DHT22;54569;52.018;5.584;2023-04-25T01:13:43;7.10;81.70
67769;DHT22;54569;52.018;5.584;2023-04-25T01:16:09;7.10;81.60
67769;DHT22;54569;52.018;5.584;2023-04-25T01:18:40;7.10;81.30
67769;DHT22;54569;52.018;5.584;2023-04-25T01:21:10;7.20;81.10
67769;DHT22;54569;52.018;5.584;2023-04-25T01:23:40;7.20;81.00
67769;DHT22;54569;52.018;5.584;2023-04-25T01:26:07;7.20;80.90
67769;DHT22;54569;52.018;5.584;2023-04-25T01:28:34;7.20;80.80
67769;DHT22;54569;52.018;5.584;2023-04-25T01:31:00;7.20;80.60
67769;DHT22;54569;52.018;5.584;2023-04-25T01:33:26;7.30;80.60
67769;DHT22;54569;52.018;5.584;2023-04-25T01:35:52;7.20;81.10
67769;DHT22;54569;52.018;5.584;2023-04-25T01:38:19;7.20;80.40
67769;DHT22;54569;52.018;5.584;2023-04-25T01:40:46;7.30;80.40
67769;DHT22;54569;52.018;5.584;2023-04-25T01:43:14;7.30;80.40
67769;DHT22;54569;52.018;5.584;2023-04-25T01:45:43;7.20;80.30
67769;DHT22;54569;52.018;5.584;2023-04-25T01:48:13;7.20;80.30
67769;DHT22;54569;52.018;5.584;2023-04-25T01:50:40;7.30;80.20
67769;DHT22;54569;52.018;5.584;2023-04-25T01:53:09;7.30;80.10
67769;DHT22;54569;52.018;5.584;2023-04-25T01:55:35;7.30;80.10
67769;DHT22;54569;52.018;5.584;2023-04-25T01:58:06;7.20;80.10
67769;DHT22;54569;52.018;5.584;2023-04-25T02:00:57;7.20;80.10
67769;DHT22;54569;52.018;5.584;2023-04-25T02:03:26;7.20;80.20
67769;DHT22;54569;52.018;5.584;2023-04-25T02:05:52;7.10;80.20
67769;DHT22;54569;52.018;5.584;2023-04-25T02:08:19;7.00;80.20
67769;DHT22;54569;52.018;5.584;2023-04-25T02:10:45;7.00;80.30
67769;DHT22;54569;52.018;5.584;2023-04-25T02:13:18;7.00;80.50
67769;DHT22;54569;52.018;5.584;2023-04-25T02:16:06;6.90;80.60
67769;DHT22;54569;52.018;5.584;2023-04-25T02:18:32;6.80;80.80
67769;DHT22;54569;52.018;5.584;2023-04-25T02:20:59;6.80;80.80
67769;DHT22;54569;52.018;5.584;2023-04-25T02:23:26;6.80;80.90
67769;DHT22;54569;52.018;5.584;2023-04-25T02:25:53;6.70;81.00
67769;DHT22;54569;52.018;5.584;2023-04-25T02:28:20;6.80;81.10
67769;DHT22;54569;52.018;5.584;2023-04-25T02:30:46;6.70;81.10
67769;DHT22;54569;52.018;5.584;2023-04-25T02:33:12;6.70;81.00
67769;DHT22;54569;52.018;5.584;2023-04-25T02:35:37;6.70;81.10
67769;DHT22;54569;52.018;5.584;2023-04-25T02:38:03;6.70;81.20
67769;DHT22;54569;52.018;5.584;2023-04-25T02:40:29;6.60;81.10
67769;DHT22;54569;52.018;5.584;2023-04-25T02:42:55;6.60;81.10
67769;DHT22;54569;52.018;5.584;2023-04-25T02:45:21;6.60;81.30
67769;DHT22;54569;52.018;5.584;2023-04-25T02:47:46;6.50;81.30
67769;DHT22;54569;52.018;5.584;2023-04-25T02:50:12;6.50;81.40
67769;DHT22;54569;52.018;5.584;2023-04-25T02:52:39;6.50;81.50
67769;DHT22;54569;52.018;5.584;2023-04-25T02:55:13;6.40;81.50
67769;DHT22;54569;52.018;5.584;2023-04-25T02:57:39;6.40;81.70
67769;DHT22;54569;52.018;5.584;2023-04-25T03:00:08;6.30;81.80
67769;DHT22;54569;52.018;5.584;2023-04-25T03:02:34;6.30;81.90
67769;DHT22;54569;52.018;5.584;2023-04-25T03:04:59;6.20;81.90
67769;DHT22;54569;52.018;5.584;2023-04-25T03:07:26;6.20;82.00
67769;DHT22;54569;52.018;5.584;2023-04-25T03:09:52;6.20;82.00
67769;DHT22;54569;52.018;5.584;2023-04-25T03:12:17;6.10;82.10
67769;DHT22;54569;52.018;5.584;2023-04-25T03:14:43;6.20;82.20
67769;DHT22;54569;52.018;5.584;2023-04-25T03:17:09;6.20;82.20
67769;DHT22;54569;52.018;5.584;2023-04-25T03:19:35;6.20;82.20
67769;DHT22;54569;52.018;5.584;2023-04-25T03:22:02;6.20;82.20
67769;DHT22;54569;52.018;5.584;2023-04-25T03:24:28;6.20;82.20
67769;DHT22;54569;52.018;5.584;2023-04-25T03:26:54;6.30;82.10
67769;DHT22;54569;52.018;5.584;2023-04-25T03:29:20;6.30;82.10
67769;DHT22;54569;52.018;5.584;2023-04-25T03:31:50;6.30;81.90
67769;DHT22;54569;52.018;5.584;2023-04-25T03:34:15;6.40;81.90
67769;DHT22;54569;52.018;5.584;2023-04-25T03:36:41;6.40;81.80
67769;DHT22;54569;52.018;5.584;2023-04-25T03:39:07;6.40;81.60
67769;DHT22;54569;52.018;5.584;2023-04-25T03:41:33;6.50;81.50
67769;DHT22;54569;52.018;5.584;2023-04-25T03:44:06;6.50;81.50
67769;DHT22;54569;52.018;5.584;2023-04-25T03:46:32;6.40;82.10
67769;DHT22;54569;52.018;5.584;2023-04-25T03:48:58;6.30;81.50
67769;DHT22;54569;52.018;5.584;2023-04-25T03:51:38;6.30;81.60
67769;DHT22;54569;52.018;5.584;2023-04-25T03:54:04;6.30;81.60
67769;DHT22;54569;52.018;5.584;2023-04-25T03:56:30;6.20;81.70
67769;DHT22;54569;52.018;5.584;2023-04-25T03:59:03;6.20;81.70
67769;DHT22;54569;52.018;5.584;2023-04-25T04:01:30;6.20;81.80
67769;DHT22;54569;52.018;5.584;2023-04-25T04:03:56;6.20;82.00
67769;DHT22;54569;52.018;5.584;2023-04-25T04:06:23;6.10;82.00
67769;DHT22;54569;52.018;5.584;2023-04-25T04:08:55;6.20;82.10
67769;DHT22;54569;52.018;5.584;2023-04-25T04:11:21;6.20;82.10
67769;DHT22;54569;52.018;5.584;2023-04-25T04:13:47;6.20;82.00
67769;DHT22;54569;52.018;5.584;2023-04-25T04:16:12;6.20;81.90
67769;DHT22;54569;52.018;5.584;2023-04-25T04:18:38;6.30;81.80
67769;DHT22;54569;52.018;5.584;2023-04-25T04:21:04;6.30;81.60
67769;DHT22;54569;52.018;5.584;2023-04-25T04:23:33;6.30;81.50
67769;DHT22;54569;52.018;5.584;2023-04-25T04:25:59;6.30;82.00
67769;DHT22;54569;52.018;5.584;2023-04-25T04:28:26;6.40;81.30
67769;DHT22;54569;52.018;5.584;2023-04-25T04:30:59;6.40;81.10
67769;DHT22;54569;52.018;5.584;2023-04-25T04:33:26;6.50;81.00
67769;DHT22;54569;52.018;5.584;2023-04-25T04:35:57;6.40;80.80
67769;DHT22;54569;52.018;5.584;2023-04-25T04:38:23;6.50;80.60
67769;DHT22;54569;52.018;5.584;2023-04-25T04:40:51;6.50;80.50
67769;DHT22;54569;52.018;5.584;2023-04-25T04:43:25;6.60;80.40
67769;DHT22;54569;52.018;5.584;2023-04-25T04:46:17;6.60;80.30
67769;DHT22;54569;52.018;5.584;2023-04-25T04:49:15;6.60;80.20
67769;DHT22;54569;52.018;5.584;2023-04-25T04:52:01;6.60;80.10
67769;DHT22;54569;52.018;5.584;2023-04-25T04:54:53;6.70;80.00
67769;DHT22;54569;52.018;5.584;2023-04-25T04:57:40;6.70;80.00
67769;DHT22;54569;52.018;5.584;2023-04-25T05:00:12;6.70;79.80
67769;DHT22;54569;52.018;5.584;2023-04-25T05:02:40;6.70;79.70
67769;DHT22;54569;52.018;5.584;2023-04-25T05:05:26;6.80;79.70
67769;DHT22;54569;52.018;5.584;2023-04-25T05:07:57;6.80;79.60
67769;DHT22;54569;52.018;5.584;2023-04-25T05:10:46;6.80;79.50
67769;DHT22;54569;52.018;5.584;2023-04-25T05:13:22;6.80;79.50
67769;DHT22;54569;52.018;5.584;2023-04-25T05:16:11;6.90;79.50
67769;DHT22;54569;52.018;5.584;2023-04-25T05:18:50;6.90;79.60
67769;DHT22;54569;52.018;5.584;2023-04-25T05:21:42;6.90;79.50
67769;DHT22;54569;52.018;5.584;2023-04-25T05:24:33;6.90;79.20
67769;DHT22;54569;52.018;5.584;2023-04-25T05:27:11;7.00;79.20
67769;DHT22;54569;52.018;5.584;2023-04-25T05:30:05;7.00;79.00
67769;DHT22;54569;52.018;5.584;2023-04-25T05:32:36;7.00;78.90
67769;DHT22;54569;52.018;5.584;2023-04-25T05:35:02;7.00;78.70
67769;DHT22;54569;52.018;5.584;2023-04-25T05:37:34;7.10;78.60
67769;DHT22;54569;52.018;5.584;2023-04-25T05:40:10;7.10;78.50
67769;DHT22;54569;52.018;5.584;2023-04-25T05:42:49;7.10;78.50
67769;DHT22;54569;52.018;5.584;2023-04-25T05:45:44;7.20;78.40
67769;DHT22;54569;52.018;5.584;2023-04-25T05:48:28;7.20;78.30
67769;DHT22;54569;52.018;5.584;2023-04-25T05:51:29;7.20;78.20
67769;DHT22;54569;52.018;5.584;2023-04-25T05:54:13;7.30;78.10
67769;DHT22;54569;52.018;5.584;2023-04-25T05:56:39;7.30;78.00
67769;DHT22;54569;52.018;5.584;2023-04-25T05:59:05;7.30;77.90
67769;DHT22;54569;52.018;5.584;2023-04-25T06:01:31;7.40;77.90
67769;DHT22;54569;52.018;5.584;2023-04-25T06:03:57;7.50;77.80
67769;DHT22;54569;52.018;5.584;2023-04-25T06:06:23;7.60;77.60
67769;DHT22;54569;52.018;5.584;2023-04-25T06:08:48;7.70;77.30
67769;DHT22;54569;52.018;5.584;2023-04-25T06:11:14;7.70;77.00
67769;DHT22;54569;52.018;5.584;2023-04-25T06:13:40;7.70;76.90
67769;DHT22;54569;52.018;5.584;2023-04-25T06:16:06;7.80;76.80
67769;DHT22;54569;52.018;5.584;2023-04-25T06:18:32;7.80;76.60
67769;DHT22;54569;52.018;5.584;2023-04-25T06:20:58;7.90;76.70
67769;DHT22;54569;52.018;5.584;2023-04-25T06:23:25;8.00;76.50
67769;DHT22;54569;52.018;5.584;2023-04-25T06:25:56;8.10;76.10
67769;DHT22;54569;52.018;5.584;2023-04-25T06:28:22;8.20;75.90
67769;DHT22;54569;52.018;5.584;2023-04-25T06:30:48;8.30;75.50
67769;DHT22;54569;52.018;5.584;2023-04-25T06:33:17;8.40;75.90
67769;DHT22;54569;52.018;5.584;2023-04-25T06:35:43;8.50;75.00
67769;DHT22;54569;52.018;5.584;2023-04-25T06:38:11;8.70;74.80
67769;DHT22;54569;52.018;5.584;2023-04-25T06:40:38;8.80;74.40
67769;DHT22;54569;52.018;5.584;2023-04-25T06:43:06;8.90;74.30
67769;DHT22;54569;52.018;5.584;2023-04-25T06:45:54;9.00;74.00
67769;DHT22;54569;52.018;5.584;2023-04-25T06:48:21;9.00;73.70
67769;DHT22;54569;52.018;5.584;2023-04-25T06:50:47;9.00;73.60
67769;DHT22;54569;52.018;5.584;2023-04-25T06:53:13;9.10;73.60
67769;DHT22;54569;52.018;5.584;2023-04-25T06:55:41;9.20;73.50
67769;DHT22;54569;52.018;5.584;2023-04-25T06:58:18;9.30;73.00
67769;DHT22;54569;52.018;5.584;2023-04-25T07:01:07;9.40;73.00
67769;DHT22;54569;52.018;5.584;2023-04-25T07:03:33;9.50;72.80
67769;DHT22;54569;52.018;5.584;2023-04-25T07:06:03;9.60;72.60
67769;DHT22;54569;52.018;5.584;2023-04-25T07:08:30;9.70;72.30
67769;DHT22;54569;52.018;5.584;2023-04-25T07:10:57;9.80;72.20
67769;DHT22;54569;52.018;5.584;2023-04-25T07:13:22;9.80;71.80
67769;DHT22;54569;52.018;5.584;2023-04-25T07:15:48;9.90;71.80
67769;DHT22;54569;52.018;5.584;2023-04-25T07:18:15;10.00;71.50
67769;DHT22;54569;52.018;5.584;2023-04-25T07:20:41;10.10;71.20
67769;DHT22;54569;52.018;5.584;2023-04-25T07:23:07;10.10;71.10
67769;DHT22;54569;52.018;5.584;2023-04-25T07:25:33;10.10;71.30
67769;DHT22;54569;52.018;5.584;2023-04-25T07:27:59;10.20;71.30
67769;DHT22;54569;52.018;5.584;2023-04-25T07:30:26;10.30;70.90
67769;DHT22;54569;52.018;5.584;2023-04-25T07:32:51;10.40;70.80
67769;DHT22;54569;52.018;5.584;2023-04-25T07:35:17;10.60;70.50
67769;DHT22;54569;52.018;5.584;2023-04-25T07:37:43;10.70;70.10
67769;DHT22;54569;52.018;5.584;2023-04-25T07:40:15;10.80;69.80
67769;DHT22;54569;52.018;5.584;2023-04-25T07:42:45;10.90;69.70
67769;DHT22;54569;52.018;5.584;2023-04-25T07:45:15;11.10;69.40
67769;DHT22;54569;52.018;5.584;2023-04-25T07:47:41;11.30;68.90
67769;DHT22;54569;52.018;5.584;2023-04-25T07:50:08;11.30;69.00
67769;DHT22;54569;52.018;5.584;2023-04-25T07:52:34;11.50;68.80
67769;DHT22;54569;52.018;5.584;2023-04-25T07:55:07;11.70;68.20
67769;DHT22;54569;52.018;5.584;2023-04-25T07:57:47;11.80;68.20
67769;DHT22;54569;52.018;5.584;2023-04-25T08:00:13;11.90;68.10
67769;DHT22;54569;52.018;5.584;2023-04-25T08:02:44;12.00;67.80
67769;DHT22;54569;52.018;5.584;2023-04-25T08:05:14;12.20;67.50
67769;DHT22;54569;52.018;5.584;2023-04-25T08:07:44;12.30;67.00
67769;DHT22;54569;52.018;5.584;2023-04-25T08:10:10;12.50;66.80
67769;DHT22;54569;52.018;5.584;2023-04-25T08:12:36;12.80;66.20
67769;DHT22;54569;52.018;5.584;2023-04-25T08:15:04;12.90;65.70
67769;DHT22;54569;52.018;5.584;2023-04-25T08:17:34;12.90;65.40
67769;DHT22;54569;52.018;5.584;2023-04-25T08:20:01;13.10;65.30
67769;DHT22;54569;52.018;5.584;2023-04-25T08:22:30;13.30;65.10
67769;DHT22;54569;52.018;5.584;2023-04-25T08:25:14;13.50;64.60
67769;DHT22;54569;52.018;5.584;2023-04-25T08:27:40;13.50;64.50
67769;DHT22;54569;52.018;5.584;2023-04-25T08:30:06;13.70;64.60
67769;DHT22;54569;52.018;5.584;2023-04-25T08:32:34;13.80;64.30
67769;DHT22;54569;52.018;5.584;2023-04-25T08:35:38;14.00;64.10
67769;DHT22;54569;52.018;5.584;2023-04-25T08:38:05;14.10;63.70
67769;DHT22;54569;52.018;5.584;2023-04-25T08:40:37;14.20;63.00
67769;DHT22;54569;52.018;5.584;2023-04-25T08:43:14;14.30;62.70
67769;DHT22;54569;52.018;5.584;2023-04-25T08:45:41;14.30;62.50
67769;DHT22;54569;52.018;5.584;2023-04-25T08:48:17;14.50;62.50
67769;DHT22;54569;52.018;5.584;2023-04-25T08:50:50;14.80;62.30
67769;DHT22;54569;52.018;5.584;2023-04-25T08:53:21;14.90;61.20
67769;DHT22;54569;52.018;5.584;2023-04-25T08:55:48;14.90;62.10
67769;DHT22;54569;52.018;5.584;2023-04-25T08:58:15;14.60;62.60
67769;DHT22;54569;52.018;5.584;2023-04-25T09:00:41;14.10;64.10
67769;DHT22;54569;52.018;5.584;2023-04-25T09:03:07;13.60;65.20
67769;DHT22;54569;52.018;5.584;2023-04-25T09:05:34;13.20;67.10
67769;DHT22;54569;52.018;5.584;2023-04-25T09:08:00;13.00;66.80
67769;DHT22;54569;52.018;5.584;2023-04-25T09:10:27;12.80;66.80
67769;DHT22;54569;52.018;5.584;2023-04-25T09:13:08;12.60;66.80
67769;DHT22;54569;52.018;5.584;2023-04-25T09:16:10;12.60;66.40
67769;DHT22;54569;52.018;5.584;2023-04-25T09:18:55;12.80;62.30
67769;DHT22;54569;52.018;5.584;2023-04-25T09:21:22;13.20;65.20
67769;DHT22;54569;52.018;5.584;2023-04-25T09:23:49;13.60;63.80
67769;DHT22;54569;52.018;5.584;2023-04-25T09:26:20;13.90;62.70
67769;DHT22;54569;52.018;5.584;2023-04-25T09:28:46;14.40;62.10
67769;DHT22;54569;52.018;5.584;2023-04-25T09:31:24;14.90;61.10
67769;DHT22;54569;52.018;5.584;2023-04-25T09:33:59;15.40;60.40
67769;DHT22;54569;52.018;5.584;2023-04-25T09:36:27;16.10;59.00
67769;DHT22;54569;52.018;5.584;2023-04-25T09:39:16;16.50;59.30
67769;DHT22;54569;52.018;5.584;2023-04-25T09:41:54;16.70;59.40
67769;DHT22;54569;52.018;5.584;2023-04-25T09:44:23;16.80;60.10
67769;DHT22;54569;52.018;5.584;2023-04-25T09:46:51;17.00;60.10
67769;DHT22;54569;52.018;5.584;2023-04-25T09:49:21;17.20;60.50
67769;DHT22;54569;52.018;5.584;2023-04-25T09:52:05;17.40;60.40
67769;DHT22;54569;52.018;5.584;2023-04-25T09:54:49;17.40;61.10
67769;DHT22;54569;52.018;5.584;2023-04-25T09:57:22;17.30;61.80
67769;DHT22;54569;52.018;5.584;2023-04-25T09:59:53;17.00;62.20
67769;DHT22;54569;52.018;5.584;2023-04-25T10:02:22;16.70;61.80
67769;DHT22;54569;52.018;5.584;2023-04-25T10:04:53;16.10;62.60
67769;DHT22;54569;52.018;5.584;2023-04-25T10:07:25;15.50;62.90
67769;DHT22;54569;52.018;5.584;2023-04-25T10:10:03;14.90;64.00
67769;DHT22;54569;52.018;5.584;2023-04-25T10:12:30;14.50;62.80
67769;DHT22;54569;52.018;5.584;2023-04-25T10:14:59;14.20;64.30
67769;DHT22;54569;52.018;5.584;2023-04-25T10:17:28;14.00;64.40
67769;DHT22;54569;52.018;5.584;2023-04-25T10:19:54;13.80;64.20
67769;DHT22;54569;52.018;5.584;2023-04-25T10:22:31;13.70;64.20
67769;DHT22;54569;52.018;5.584;2023-04-25T10:24:58;13.50;63.20
67769;DHT22;54569;52.018;5.584;2023-04-25T10:27:27;13.40;63.20
67769;DHT22;54569;52.018;5.584;2023-04-25T10:30:10;13.50;62.80
67769;DHT22;54569;52.018;5.584;2023-04-25T10:32:39;13.70;59.80
67769;DHT22;54569;52.018;5.584;2023-04-25T10:35:27;13.90;61.40
67769;DHT22;54569;52.018;5.584;2023-04-25T10:40:28;14.70;58.50
67769;DHT22;54569;52.018;5.584;2023-04-25T10:42:55;14.90;59.10
67769;DHT22;54569;52.018;5.584;2023-04-25T10:45:21;15.10;58.70
67769;DHT22;54569;52.018;5.584;2023-04-25T10:47:47;15.10;58.00
67769;DHT22;54569;52.018;5.584;2023-04-25T10:50:17;15.30;57.90
67769;DHT22;54569;52.018;5.584;2023-04-25T10:52:43;15.70;56.50
67769;DHT22;54569;52.018;5.584;2023-04-25T10:55:09;15.90;56.50
67769;DHT22;54569;52.018;5.584;2023-04-25T11:02:30;16.30;55.90
67769;DHT22;54569;52.018;5.584;2023-04-25T11:04:56;16.40;55.70
67769;DHT22;54569;52.018;5.584;2023-04-25T11:07:38;16.50;55.70
67769;DHT22;54569;52.018;5.584;2023-04-25T11:10:05;17.00;53.10
67769;DHT22;54569;52.018;5.584;2023-04-25T11:12:31;17.10;54.20
67769;DHT22;54569;52.018;5.584;2023-04-25T11:15:05;17.10;54.10
67769;DHT22;54569;52.018;5.584;2023-04-25T11:17:31;17.00;52.90
67769;DHT22;54569;52.018;5.584;2023-04-25T11:19:57;17.00;54.60
67769;DHT22;54569;52.018;5.584;2023-04-25T11:22:22;17.20;54.30
67769;DHT22;54569;52.018;5.584;2023-04-25T11:24:48;17.70;53.70
67769;DHT22;54569;52.018;5.584;2023-04-25T11:27:14;18.90;51.90
67769;DHT22;54569;52.018;5.584;2023-04-25T11:29:40;20.10;50.00
67769;DHT22;54569;52.018;5.584;2023-04-25T11:32:06;20.30;49.50
67769;DHT22;54569;52.018;5.584;2023-04-25T11:34:32;20.10;50.00
67769;DHT22;54569;52.018;5.584;2023-04-25T11:36:59;20.10;50.00
67769;DHT22;54569;52.018;5.584;2023-04-25T11:39:26;19.60;51.10
67769;DHT22;54569;52.018;5.584;2023-04-25T11:41:52;19.70;51.10
67769;DHT22;54569;52.018;5.584;2023-04-25T11:44:19;19.30;51.70
67769;DHT22;54569;52.018;5.584;2023-04-25T11:46:45;18.30;53.80
67769;DHT22;54569;52.018;5.584;2023-04-25T11:49:12;17.30;55.60
67769;DHT22;54569;52.018;5.584;2023-04-25T11:54:06;15.80;57.60
67769;DHT22;54569;52.018;5.584;2023-04-25T11:56:32;15.30;59.00
67769;DHT22;54569;52.018;5.584;2023-04-25T11:59:00;14.80;59.40
67769;DHT22;54569;52.018;5.584;2023-04-25T12:01:36;14.50;60.30
67769;DHT22;54569;52.018;5.584;2023-04-25T12:04:13;14.50;58.70
67769;DHT22;54569;52.018;5.584;2023-04-25T12:06:40;14.50;58.60
67769;DHT22;54569;52.018;5.584;2023-04-25T12:09:08;14.50;59.60
67769;DHT22;54569;52.018;5.584;2023-04-25T12:11:45;14.50;58.50
67769;DHT22;54569;52.018;5.584;2023-04-25T12:14:12;14.50;57.10
67769;DHT22;54569;52.018;5.584;2023-04-25T12:16:46;14.40;58.10
67769;DHT22;54569;52.018;5.584;2023-04-25T12:19:16;14.30;57.80
67769;DHT22;54569;52.018;5.584;2023-04-25T12:21:43;14.30;56.90
67769;DHT22;54569;52.018;5.584;2023-04-25T12:24:15;14.40;57.10
67769;DHT22;54569;52.018;5.584;2023-04-25T12:27:02;14.40;56.30
67769;DHT22;54569;52.018;5.584;2023-04-25T12:29:30;14.50;54.70
67769;DHT22;54569;52.018;5.584;2023-04-25T12:31:57;14.70;56.10
67769;DHT22;54569;52.018;5.584;2023-04-25T12:34:23;14.90;55.50
67769;DHT22;54569;52.018;5.584;2023-04-25T12:36:50;15.00;55.00
67769;DHT22;54569;52.018;5.584;2023-04-25T12:39:16;15.10;54.50
67769;DHT22;54569;52.018;5.584;2023-04-25T12:41:43;15.20;54.60
67769;DHT22;54569;52.018;5.584;2023-04-25T12:44:09;15.50;54.70
67769;DHT22;54569;52.018;5.584;2023-04-25T12:46:36;15.40;54.60
67769;DHT22;54569;52.018;5.584;2023-04-25T12:49:01;15.40;54.60
67769;DHT22;54569;52.018;5.584;2023-04-25T12:51:29;15.20;54.90
67769;DHT22;54569;52.018;5.584;2023-04-25T12:53:54;14.90;55.10
67769;DHT22;54569;52.018;5.584;2023-04-25T12:56:20;14.60;55.40
67769;DHT22;54569;52.018;5.584;2023-04-25T12:58:46;14.40;55.60
67769;DHT22;54569;52.018;5.584;2023-04-25T13:01:13;14.40;55.90
67769;DHT22;54569;52.018;5.584;2023-04-25T13:03:40;14.50;55.70
67769;DHT22;54569;52.018;5.584;2023-04-25T13:06:06;14.50;55.30
67769;DHT22;54569;52.018;5.584;2023-04-25T13:08:32;14.60;54.70
67769;DHT22;54569;52.018;5.584;2023-04-25T13:10:58;14.70;54.30
67769;DHT22;54569;52.018;5.584;2023-04-25T13:13:23;14.80;54.30
67769;DHT22;54569;52.018;5.584;2023-04-25T13:15:49;14.70;54.40
67769;DHT22;54569;52.018;5.584;2023-04-25T13:18:15;14.70;54.30
67769;DHT22;54569;52.018;5.584;2023-04-25T13:20:41;14.60;54.40
67769;DHT22;54569;52.018;5.584;2023-04-25T13:23:06;14.70;54.40
67769;DHT22;54569;52.018;5.584;2023-04-25T13:25:32;14.70;54.00
67769;DHT22;54569;52.018;5.584;2023-04-25T13:27:58;14.70;54.10
67769;DHT22;54569;52.018;5.584;2023-04-25T13:30:24;14.60;53.90
67769;DHT22;54569;52.018;5.584;2023-04-25T13:32:49;14.30;53.60
67769;DHT22;54569;52.018;5.584;2023-04-25T13:35:16;14.00;54.40
67769;DHT22;54569;52.018;5.584;2023-04-25T13:37:42;13.80;54.60
67769;DHT22;54569;52.018;5.584;2023-04-25T13:40:09;13.80;54.90
67769;DHT22;54569;52.018;5.584;2023-04-25T13:42:37;13.90;54.80
67769;DHT22;54569;52.018;5.584;2023-04-25T13:45:03;14.20;54.00
67769;DHT22;54569;52.018;5.584;2023-04-25T13:47:29;14.50;53.60
67769;DHT22;54569;52.018;5.584;2023-04-25T13:49:56;14.30;53.00
67769;DHT22;54569;52.018;5.584;2023-04-25T13:52:21;14.10;53.30
67769;DHT22;54569;52.018;5.584;2023-04-25T13:54:49;14.00;53.80
67769;DHT22;54569;52.018;5.584;2023-04-25T13:57:15;13.70;54.30
67769;DHT22;54569;52.018;5.584;2023-04-25T13:59:41;13.50;55.00
67769;DHT22;54569;52.018;5.584;2023-04-25T14:02:07;13.40;55.70
67769;DHT22;54569;52.018;5.584;2023-04-25T14:04:33;13.40;55.70
67769;DHT22;54569;52.018;5.584;2023-04-25T14:06:59;13.30;56.10
67769;DHT22;54569;52.018;5.584;2023-04-25T14:09:25;13.40;55.90
67769;DHT22;54569;52.018;5.584;2023-04-25T14:11:52;13.50;55.50
67769;DHT22;54569;52.018;5.584;2023-04-25T14:14:19;13.50;55.20
67769;DHT22;54569;52.018;5.584;2023-04-25T14:16:45;13.50;55.00
67769;DHT22;54569;52.018;5.584;2023-04-25T14:19:17;13.50;55.00
67769;DHT22;54569;52.018;5.584;2023-04-25T14:21:42;13.50;55.10
67769;DHT22;54569;52.018;5.584;2023-04-25T14:24:09;13.40;55.00
67769;DHT22;54569;52.018;5.584;2023-04-25T14:26:36;13.40;54.90
67769;DHT22;54569;52.018;5.584;2023-04-25T14:29:06;13.30;54.80
67769;DHT22;54569;52.018;5.584;2023-04-25T14:31:33;13.10;54.70
67769;DHT22;54569;52.018;5.584;2023-04-25T14:33:59;13.00;54.70
67769;DHT22;54569;52.018;5.584;2023-04-25T14:36:25;12.80;54.90
67769;DHT22;54569;52.018;5.584;2023-04-25T14:38:52;12.90;55.30
67769;DHT22;54569;52.018;5.584;2023-04-25T14:41:18;12.90;55.30
67769;DHT22;54569;52.018;5.584;2023-04-25T14:43:43;12.80;55.40
67769;DHT22;54569;52.018;5.584;2023-04-25T14:46:10;12.80;55.20
67769;DHT22;54569;52.018;5.584;2023-04-25T14:48:36;12.70;55.30
67769;DHT22;54569;52.018;5.584;2023-04-25T14:51:02;12.70;55.10
67769;DHT22;54569;52.018;5.584;2023-04-25T14:53:28;12.50;54.70
67769;DHT22;54569;52.018;5.584;2023-04-25T14:55:54;12.40;55.10
67769;DHT22;54569;52.018;5.584;2023-04-25T14:58:20;12.30;55.20
67769;DHT22;54569;52.018;5.584;2023-04-25T15:00:46;12.20;55.60
67769;DHT22;54569;52.018;5.584;2023-04-25T15:03:12;12.10;55.50
67769;DHT22;54569;52.018;5.584;2023-04-25T15:05:39;12.10;55.50
67769;DHT22;54569;52.018;5.584;2023-04-25T15:08:05;12.10;55.60
67769;DHT22;54569;52.018;5.584;2023-04-25T15:10:31;12.10;55.60
67769;DHT22;54569;52.018;5.584;2023-04-25T15:12:57;12.20;55.40
67769;DHT22;54569;52.018;5.584;2023-04-25T15:15:22;12.40;55.00
67769;DHT22;54569;52.018;5.584;2023-04-25T15:17:49;12.50;54.60
67769;DHT22;54569;52.018;5.584;2023-04-25T15:20:15;12.60;54.40
67769;DHT22;54569;52.018;5.584;2023-04-25T15:22:42;12.60;54.10
67769;DHT22;54569;52.018;5.584;2023-04-25T15:25:08;12.40;54.20
67769;DHT22;54569;52.018;5.584;2023-04-25T15:27:35;12.30;54.80
67769;DHT22;54569;52.018;5.584;2023-04-25T15:30:06;12.30;55.40
67769;DHT22;54569;52.018;5.584;2023-04-25T15:32:33;12.20;55.60
67769;DHT22;54569;52.018;5.584;2023-04-25T15:35:03;12.20;55.30
67769;DHT22;54569;52.018;5.584;2023-04-25T15:37:28;12.00;55.30
67769;DHT22;54569;52.018;5.584;2023-04-25T15:40:15;12.00;55.50
67769;DHT22;54569;52.018;5.584;2023-04-25T15:42:45;11.90;55.30
67769;DHT22;54569;52.018;5.584;2023-04-25T15:45:12;11.80;55.60
67769;DHT22;54569;52.018;5.584;2023-04-25T15:47:39;11.80;55.60
67769;DHT22;54569;52.018;5.584;2023-04-25T15:50:07;11.70;55.70
67769;DHT22;54569;52.018;5.584;2023-04-25T15:52:33;11.70;55.80
67769;DHT22;54569;52.018;5.584;2023-04-25T15:54:59;11.70;55.60
67769;DHT22;54569;52.018;5.584;2023-04-25T15:57:26;11.70;55.60
67769;DHT22;54569;52.018;5.584;2023-04-25T15:59:52;11.70;56.10